Time;durP1;ratioP1;P1;durP2;ratioP2;P2;SDS_P1;SDS_P2;PMS_P1;PMS_P2;Temp;Humidity;BMP_temperature;BMP_pressure;BME280_temperature;BME280_humidity;BME280_pressure;Samples;Min_cycle;Max_cycle;Signal;HPM_P1;HPM_P2
2023/07/12 00:00:27;;;;;;;11.00;4.60;;;;;;;22.41;nan;100458.56;4941090;29;20071;-59
2023/07/12 00:02:57;;;;;;;7.72;4.05;;;;;;;22.43;nan;100455.69;4924313;29;20052;-59
2023/07/12 00:05:28;;;;;;;9.90;4.90;;;;;;;22.37;nan;100451.78;4928338;29;20704;-59
2023/07/12 00:07:56;;;;;;;8.43;4.63;;;;;;;22.39;nan;100455.16;4923714;29;20509;-59
2023/07/12 00:10:28;;;;;;;11.23;4.93;;;;;;;22.38;nan;100456.19;4934749;29;20051;-59
2023/07/12 00:12:55;;;;;;;9.50;4.90;;;;;;;22.28;nan;100458.06;4947632;29;20299;-59
2023/07/12 00:15:28;;;;;;;7.65;4.53;;;;;;;22.25;nan;100455.66;4942904;29;20508;-59
2023/07/12 00:17:55;;;;;;;7.68;4.75;;;;;;;22.25;nan;100451.16;4940769;28;20051;-59
2023/07/12 00:20:24;;;;;;;6.90;4.45;;;;;;;22.27;nan;100440.22;4937881;29;20493;-59
2023/07/12 00:22:51;;;;;;;8.50;4.20;;;;;;;22.25;nan;100442.19;4931876;29;20055;-59
2023/07/12 00:25:19;;;;;;;10.95;4.65;;;;;;;22.18;nan;100440.16;4932304;29;20387;-59
2023/07/12 00:27:46;;;;;;;9.32;5.03;;;;;;;22.21;nan;100440.84;4931695;29;20665;-59
2023/07/12 00:30:24;;;;;;;8.23;4.63;;;;;;;22.15;nan;100437.75;4932407;29;20047;-59
2023/07/12 00:32:52;;;;;;;10.13;6.15;;;;;;;22.14;nan;100422.59;4940335;29;20059;-59
2023/07/12 00:35:22;;;;;;;8.82;4.65;;;;;;;22.11;nan;100414.81;4937305;28;20051;-59
2023/07/12 00:37:57;;;;;;;5.65;4.10;;;;;;;22.09;nan;100405.22;4925121;29;20066;-60
2023/07/12 00:40:23;;;;;;;8.73;4.22;;;;;;;22.06;nan;100406.38;4951919;29;20103;-59
2023/07/12 00:42:57;;;;;;;6.20;3.58;;;;;;;22.03;nan;100385.16;4931527;29;20078;-59
2023/07/12 00:45:25;;;;;;;13.95;4.90;;;;;;;22.07;nan;100370.41;4929156;29;20059;-58
2023/07/12 00:47:52;;;;;;;6.95;4.45;;;;;;;22.03;nan;100374.38;4930088;29;20052;-59
2023/07/12 00:50:20;;;;;;;7.35;4.03;;;;;;;22.04;nan;100376.09;4933371;29;20114;-59
2023/07/12 00:52:46;;;;;;;10.85;4.63;;;;;;;21.98;nan;100366.75;4920025;28;20084;-59
2023/07/12 00:55:51;;;;;;;10.15;4.05;;;;;;;21.95;nan;100359.03;4927404;29;20070;-58
2023/07/12 00:58:17;;;;;;;5.60;4.22;;;;;;;21.96;nan;100355.31;4936336;29;20405;-59
2023/07/12 01:00:44;;;;;;;12.57;4.82;;;;;;;21.98;nan;100344.41;4932094;29;20051;-59
2023/07/12 01:03:14;;;;;;;8.48;5.05;;;;;;;21.98;nan;100339.03;4926110;29;20052;-59
2023/07/12 01:05:44;;;;;;;7.30;4.93;;;;;;;21.93;nan;100344.03;4937502;29;20122;-59
2023/07/12 01:08:13;;;;;;;10.90;4.75;;;;;;;21.95;nan;100333.94;4927535;29;20099;-59
2023/07/12 01:10:40;;;;;;;5.93;4.22;;;;;;;21.95;nan;100337.50;4932443;29;20413;-59
2023/07/12 01:13:08;;;;;;;10.93;5.18;;;;;;;21.93;nan;100326.03;4934897;28;20118;-59
2023/07/12 01:15:35;;;;;;;8.20;5.20;;;;;;;21.88;nan;100305.97;4926532;29;20054;-59
2023/07/12 01:18:04;;;;;;;9.25;4.38;;;;;;;21.92;nan;100307.34;4931206;29;20181;-59
2023/07/12 01:20:36;;;;;;;11.10;4.90;;;;;;;21.86;nan;100302.63;4941970;29;20393;-59
2023/07/12 01:23:03;;;;;;;7.50;5.32;;;;;;;21.85;nan;100295.53;4932662;29;20293;-59
2023/07/12 01:25:36;;;;;;;7.95;4.85;;;;;;;21.83;nan;100302.91;4935543;29;20057;-59
2023/07/12 01:28:04;;;;;;;9.77;5.15;;;;;;;21.82;nan;100288.59;4936948;29;20056;-59
2023/07/12 01:30:31;;;;;;;7.72;4.60;;;;;;;21.77;nan;100289.09;4921572;29;20047;-59
2023/07/12 01:32:58;;;;;;;7.90;5.32;;;;;;;21.75;nan;100291.06;4927735;29;20396;-59
2023/07/12 01:35:26;;;;;;;11.15;5.10;;;;;;;21.72;nan;100282.47;4934433;29;20047;-59
2023/07/12 01:37:52;;;;;;;6.72;5.13;;;;;;;21.75;nan;100285.69;4925283;29;20052;-59
2023/07/12 01:40:19;;;;;;;8.95;5.00;;;;;;;21.72;nan;100275.22;4921651;29;20137;-59
2023/07/12 01:42:46;;;;;;;9.52;5.45;;;;;;;21.66;nan;100267.81;4936476;29;20047;-59
2023/07/12 01:45:13;;;;;;;7.32;5.13;;;;;;;21.68;nan;100270.34;4933213;29;20500;-59
2023/07/12 01:47:40;;;;;;;10.57;5.65;;;;;;;21.69;nan;100270.16;4938050;29;20078;-59
2023/07/12 01:50:07;;;;;;;9.02;5.07;;;;;;;21.63;nan;100265.41;4929840;29;20058;-59
2023/07/12 01:52:33;;;;;;;9.07;5.47;;;;;;;21.64;nan;100259.03;4942473;29;20075;-59
2023/07/12 01:55:01;;;;;;;16.75;5.18;;;;;;;21.69;nan;100259.41;4943296;29;20063;-59
2023/07/12 01:57:27;;;;;;;13.20;5.60;;;;;;;21.70;nan;100244.97;4930855;28;20055;-59
2023/07/12 01:59:54;;;;;;;8.85;5.13;;;;;;;21.66;nan;100238.22;4929527;29;20435;-59
2023/07/12 02:02:20;;;;;;;7.97;5.20;;;;;;;21.64;nan;100224.06;4925181;29;20060;-62
2023/07/12 02:04:47;;;;;;;12.05;5.10;;;;;;;21.63;nan;100225.06;4940743;29;20047;-59
2023/07/12 02:07:13;;;;;;;8.27;4.50;;;;;;;21.54;nan;100217.94;4936933;29;20121;-59
2023/07/12 02:09:41;;;;;;;9.70;4.90;;;;;;;21.55;nan;100207.03;4933406;29;20056;-59
2023/07/12 02:12:08;;;;;;;8.20;4.63;;;;;;;21.51;nan;100202.09;4948200;28;20055;-59
2023/07/12 02:14:35;;;;;;;9.30;5.38;;;;;;;21.53;nan;100200.97;4939891;29;20052;-59
2023/07/12 02:17:02;;;;;;;10.25;5.50;;;;;;;21.43;nan;100201.00;4933483;29;20056;-59
2023/07/12 02:19:29;;;;;;;7.88;4.82;;;;;;;21.42;nan;100199.31;4939714;29;20051;-59
2023/07/12 02:21:55;;;;;;;13.85;5.60;;;;;;;21.44;nan;100199.16;4943507;29;20114;-59
2023/07/12 02:24:22;;;;;;;12.13;5.75;;;;;;;21.45;nan;100190.94;4933388;29;20225;-59
2023/07/12 02:26:48;;;;;;;8.10;6.07;;;;;;;21.51;nan;100199.41;4930545;29;20082;-59
2023/07/12 02:29:15;;;;;;;8.10;5.40;;;;;;;21.54;nan;100196.41;4935521;29;20485;-59
2023/07/12 02:31:41;;;;;;;9.38;6.07;;;;;;;21.57;nan;100190.72;4925740;29;20066;-59
2023/07/12 02:34:08;;;;;;;11.93;5.38;;;;;;;21.61;nan;100192.97;4946413;29;20123;-59
2023/07/12 02:36:35;;;;;;;10.85;5.85;;;;;;;21.63;nan;100190.94;4938401;29;20085;-59
2023/07/12 02:39:01;;;;;;;7.90;5.03;;;;;;;21.54;nan;100180.28;4932130;29;20052;-59
2023/07/12 02:41:28;;;;;;;8.40;5.47;;;;;;;21.59;nan;100177.97;4933126;29;20496;-59
2023/07/12 02:43:54;;;;;;;11.05;5.78;;;;;;;21.56;nan;100178.28;4919357;29;20066;-59
2023/07/12 02:46:21;;;;;;;9.98;5.97;;;;;;;21.53;nan;100179.44;4930923;29;20075;-59
2023/07/12 02:48:48;;;;;;;17.77;5.65;;;;;;;21.56;nan;100206.03;4926455;29;20087;-59
2023/07/12 02:51:14;;;;;;;8.13;5.32;;;;;;;21.57;nan;100239.13;4926566;29;20394;-59
2023/07/12 02:53:41;;;;;;;9.00;5.68;;;;;;;21.59;nan;100237.13;4933001;29;20044;-59
2023/07/12 02:56:08;;;;;;;8.88;4.95;;;;;;;21.60;nan;100222.69;4943396;29;20160;-59
2023/07/12 02:58:35;;;;;;;9.40;5.72;;;;;;;21.62;nan;100228.75;4942952;29;20134;-59
2023/07/12 03:01:02;;;;;;;8.50;5.25;;;;;;;21.57;nan;100225.69;4942148;28;20562;-59
2023/07/12 03:03:29;;;;;;;10.05;4.97;;;;;;;21.53;nan;100226.97;4932281;29;20246;-59
2023/07/12 03:06:02;;;;;;;8.75;5.68;;;;;;;21.48;nan;100232.84;4932107;29;20061;-59
2023/07/12 03:08:28;;;;;;;7.65;5.93;;;;;;;21.49;nan;100225.63;4932777;29;20058;-59
2023/07/12 03:10:58;;;;;;;10.80;6.05;;;;;;;21.45;nan;100219.69;4930390;29;20060;-59
2023/07/12 03:13:24;;;;;;;7.80;5.07;;;;;;;21.44;nan;100212.59;4932629;29;20078;-59
2023/07/12 03:15:51;;;;;;;7.15;5.97;;;;;;;21.37;nan;100204.31;4919673;29;20051;-59
2023/07/12 03:18:18;;;;;;;9.82;5.88;;;;;;;21.34;nan;100209.97;4936126;29;20071;-59
2023/07/12 03:20:44;;;;;;;13.23;6.80;;;;;;;21.30;nan;100203.25;4939639;29;20073;-59
2023/07/12 03:23:11;;;;;;;9.15;6.20;;;;;;;21.32;nan;100192.34;4927861;29;20056;-59
2023/07/12 03:25:37;;;;;;;7.45;5.53;;;;;;;21.32;nan;100187.78;4931818;29;20059;-59
2023/07/12 03:28:04;;;;;;;11.27;6.03;;;;;;;21.33;nan;100189.47;4929781;29;20051;-59
2023/07/12 03:30:30;;;;;;;8.95;5.70;;;;;;;21.33;nan;100202.91;4932384;29;20066;-59
2023/07/12 03:32:57;;;;;;;9.68;6.47;;;;;;;21.36;nan;100197.22;4919648;29;20064;-59
2023/07/12 03:35:24;;;;;;;11.00;6.80;;;;;;;21.34;nan;100193.84;4929591;29;20070;-59
2023/07/12 03:37:50;;;;;;;9.38;6.40;;;;;;;21.34;nan;100191.16;4923629;29;20416;-59
2023/07/12 03:40:17;;;;;;;9.75;6.32;;;;;;;21.32;nan;100190.47;4932835;29;20555;-59
2023/07/12 03:42:43;;;;;;;8.73;6.65;;;;;;;21.30;nan;100187.13;4936514;29;20063;-59
2023/07/12 03:45:10;;;;;;;11.05;8.15;;;;;;;21.40;nan;100189.72;4937349;29;20224;-59
2023/07/12 03:47:37;;;;;;;11.88;6.88;;;;;;;21.35;nan;100192.00;4946630;28;20074;-59
2023/07/12 03:50:04;;;;;;;12.82;7.53;;;;;;;21.32;nan;100193.16;4929603;29;20067;-59
2023/07/12 03:52:30;;;;;;;9.98;6.68;;;;;;;21.35;nan;100198.25;4936826;29;20393;-59
2023/07/12 03:54:57;;;;;;;10.23;6.88;;;;;;;21.40;nan;100201.31;4930789;29;20095;-59
2023/07/12 03:57:24;;;;;;;9.52;6.50;;;;;;;21.47;nan;100198.84;4931608;29;20424;-59
2023/07/12 03:59:50;;;;;;;11.52;7.20;;;;;;;21.48;nan;100192.53;4931284;29;20058;-59
2023/07/12 04:02:17;;;;;;;16.05;7.68;;;;;;;21.49;nan;100201.41;4931494;29;20373;-59
2023/07/12 04:04:43;;;;;;;10.07;7.43;;;;;;;21.48;nan;100194.34;4921164;29;20048;-59
2023/07/12 04:07:10;;;;;;;12.50;6.70;;;;;;;21.43;nan;100195.63;4927195;29;20134;-59
2023/07/12 04:09:36;;;;;;;11.30;7.15;;;;;;;21.45;nan;100192.78;4942995;29;20492;-59
2023/07/12 04:12:03;;;;;;;14.50;7.55;;;;;;;21.54;nan;100196.41;4931161;29;20484;-59
2023/07/12 04:14:30;;;;;;;10.00;7.03;;;;;;;21.53;nan;100192.03;4914018;29;20067;-59
2023/07/12 04:16:57;;;;;;;10.38;7.25;;;;;;;21.60;nan;100179.66;4924882;29;20110;-59
2023/07/12 04:19:23;;;;;;;15.52;8.32;;;;;;;21.60;nan;100185.88;4930048;29;20066;-59
2023/07/12 04:21:50;;;;;;;13.05;7.55;;;;;;;21.60;nan;100175.13;4929347;29;20063;-59
2023/07/12 04:24:16;;;;;;;14.55;7.22;;;;;;;21.59;nan;100173.47;4920157;29;20061;-59
2023/07/12 04:26:43;;;;;;;11.43;7.55;;;;;;;21.60;nan;100179.66;4930783;29;20051;-59
2023/07/12 04:29:09;;;;;;;12.30;7.00;;;;;;;21.69;nan;100173.34;4931155;29;20055;-59
2023/07/12 04:31:36;;;;;;;15.43;7.93;;;;;;;21.64;nan;100191.78;4930407;29;20556;-59
2023/07/12 04:34:03;;;;;;;14.27;7.82;;;;;;;21.67;nan;100196.84;4932035;29;20052;-59
2023/07/12 04:36:30;;;;;;;11.80;8.15;;;;;;;21.76;nan;100205.84;4925848;29;20409;-59
2023/07/12 04:38:56;;;;;;;10.50;7.13;;;;;;;21.82;nan;100194.44;4935170;29;20114;-59
2023/07/12 04:41:24;;;;;;;13.40;6.95;;;;;;;21.89;nan;100205.44;4931908;29;20055;-59
2023/07/12 04:43:51;;;;;;;14.27;8.10;;;;;;;21.88;nan;100203.75;4930381;29;20583;-59
2023/07/12 04:46:17;;;;;;;20.40;8.32;;;;;;;21.94;nan;100203.13;4929039;29;20465;-59
2023/07/12 04:48:44;;;;;;;13.63;8.63;;;;;;;21.86;nan;100211.16;4930506;29;20066;-59
2023/07/12 04:51:11;;;;;;;13.55;7.95;;;;;;;21.85;nan;100209.44;4929180;29;20441;-59
2023/07/12 04:53:37;;;;;;;10.52;7.60;;;;;;;21.94;nan;100208.53;4930422;29;20527;-59
2023/07/12 04:56:04;;;;;;;15.38;8.68;;;;;;;21.99;nan;100222.34;4918267;29;20055;-59
2023/07/12 04:58:30;;;;;;;13.40;8.45;;;;;;;22.09;nan;100215.00;4927184;29;20111;-59
2023/07/12 05:00:58;;;;;;;11.77;8.35;;;;;;;22.17;nan;100223.13;4924661;29;20481;-59
2023/07/12 05:03:24;;;;;;;18.60;8.35;;;;;;;22.23;nan;100218.09;4924382;29;20071;-59
2023/07/12 05:05:52;;;;;;;13.95;8.45;;;;;;;22.40;nan;100219.09;4912362;29;20115;-59
2023/07/12 05:08:18;;;;;;;12.85;9.13;;;;;;;22.70;nan;100220.41;4911847;29;20082;-59
2023/07/12 05:10:45;;;;;;;13.10;8.57;;;;;;;22.96;nan;100219.50;4924428;29;20078;-59
2023/07/12 05:13:12;;;;;;;17.73;8.35;;;;;;;23.11;nan;100223.28;4922236;29;20056;-59
2023/07/12 05:15:38;;;;;;;13.40;8.55;;;;;;;23.24;nan;100229.03;4928687;29;20039;-59
2023/07/12 05:18:05;;;;;;;12.82;8.32;;;;;;;23.50;nan;100233.47;4921420;29;20059;-59
2023/07/12 05:20:33;;;;;;;12.85;9.20;;;;;;;23.61;nan;100225.03;4944491;29;20164;-59
2023/07/12 05:22:59;;;;;;;15.63;9.25;;;;;;;23.78;nan;100230.44;4928944;29;20064;-59
2023/07/12 05:25:26;;;;;;;13.50;8.75;;;;;;;23.89;nan;100232.84;4928004;29;20051;-59
2023/07/12 05:27:53;;;;;;;14.30;7.95;;;;;;;23.98;nan;100245.31;4930067;29;20059;-59
2023/07/12 05:30:19;;;;;;;18.30;8.18;;;;;;;24.12;nan;100238.38;4926812;29;20692;-59
2023/07/12 05:32:46;;;;;;;15.07;7.75;;;;;;;24.21;nan;100258.13;4928826;29;20051;-59
2023/07/12 05:35:12;;;;;;;17.30;7.90;;;;;;;24.23;nan;100253.38;4925311;29;20059;-59
2023/07/12 05:37:39;;;;;;;14.38;8.07;;;;;;;24.35;nan;100249.28;4932503;29;20412;-59
2023/07/12 05:40:06;;;;;;;22.85;8.35;;;;;;;24.35;nan;100265.50;4928609;29;20518;-59
2023/07/12 05:42:33;;;;;;;11.05;7.38;;;;;;;24.35;nan;100262.81;4933190;29;20067;-59
2023/07/12 05:45:00;;;;;;;17.70;6.60;;;;;;;24.49;nan;100268.53;4920655;29;20056;-59
2023/07/12 05:47:26;;;;;;;9.23;5.93;;;;;;;24.40;nan;100277.66;4929351;29;20051;-59
2023/07/12 05:49:53;;;;;;;7.35;5.32;;;;;;;24.46;nan;100277.81;4920784;29;20404;-59
2023/07/12 05:52:20;;;;;;;16.13;6.15;;;;;;;24.50;nan;100283.72;4929700;29;20074;-59
2023/07/12 05:54:46;;;;;;;8.77;5.43;;;;;;;24.48;nan;100286.59;4918664;29;20564;-59
2023/07/12 05:57:13;;;;;;;16.42;6.97;;;;;;;24.47;nan;100292.16;4929402;29;20055;-59
2023/07/12 05:59:39;;;;;;;11.27;6.40;;;;;;;24.48;nan;100308.19;4930856;29;20054;-59
2023/07/12 06:02:11;;;;;;;13.35;6.00;;;;;;;24.46;nan;100306.69;4928490;29;20048;-59
2023/07/12 06:04:37;;;;;;;10.00;5.53;;;;;;;24.45;nan;100307.69;4922955;29;20062;-59
2023/07/12 06:07:04;;;;;;;11.73;6.78;;;;;;;24.55;nan;100317.34;4924203;29;20481;-59
2023/07/12 06:09:31;;;;;;;13.18;5.45;;;;;;;24.65;nan;100314.44;4932970;29;20122;-59
2023/07/12 06:11:58;;;;;;;12.63;6.28;;;;;;;24.73;nan;100322.53;4929455;29;20051;-59
2023/07/12 06:14:24;;;;;;;11.85;5.55;;;;;;;24.87;nan;100328.25;4933527;29;20056;-59
2023/07/12 06:16:51;;;;;;;8.82;5.65;;;;;;;24.92;nan;100336.66;4933050;29;20055;-59
2023/07/12 06:19:17;;;;;;;20.98;5.32;;;;;;;25.02;nan;100342.69;4934556;29;20056;-59
2023/07/12 06:21:44;;;;;;;16.05;5.75;;;;;;;24.99;nan;100343.03;4929227;29;20059;-59
2023/07/12 06:24:10;;;;;;;11.68;5.93;;;;;;;25.08;nan;100331.19;4935505;29;20352;-59
2023/07/12 06:26:37;;;;;;;10.85;5.72;;;;;;;25.20;nan;100333.53;4933662;29;20107;-59
2023/07/12 06:29:04;;;;;;;10.18;5.43;;;;;;;25.11;nan;100340.84;4932034;29;20125;-59
2023/07/12 06:31:31;;;;;;;10.93;5.07;;;;;;;25.43;nan;100339.84;4931932;29;20067;-59
2023/07/12 06:34:02;;;;;;;9.63;6.00;;;;;;;25.31;nan;100319.63;4928586;29;20115;-59
2023/07/12 06:36:28;;;;;;;7.50;5.40;;;;;;;25.32;nan;100340.25;4922720;29;20344;-59
2023/07/12 06:38:55;;;;;;;9.52;5.40;;;;;;;25.41;nan;100347.31;4926274;29;20139;-60
2023/07/12 06:41:22;;;;;;;9.55;5.70;;;;;;;25.52;nan;100337.09;4929159;29;20055;-60
2023/07/12 06:43:49;;;;;;;10.60;5.55;;;;;;;25.37;nan;100335.16;4927379;29;20047;-60
2023/07/12 06:46:16;;;;;;;11.23;5.75;;;;;;;25.50;nan;100344.56;4934607;29;20056;-59
2023/07/12 06:48:42;;;;;;;11.00;5.38;;;;;;;25.53;nan;100355.03;4935790;29;20378;-59
2023/07/12 06:51:09;;;;;;;10.18;5.13;;;;;;;25.81;nan;100355.34;4932808;29;20070;-59
2023/07/12 06:53:36;;;;;;;16.67;5.80;;;;;;;25.69;nan;100356.81;4928226;29;20055;-60
2023/07/12 06:56:03;;;;;;;9.02;5.35;;;;;;;25.62;nan;100359.38;4930894;29;20048;-59
2023/07/12 06:58:30;;;;;;;12.02;5.78;;;;;;;25.70;nan;100378.28;4934380;29;20150;-59
2023/07/12 07:00:56;;;;;;;13.90;7.13;;;;;;;25.76;nan;100393.81;4931528;29;20060;-59
2023/07/12 07:03:23;;;;;;;11.15;5.68;;;;;;;25.76;nan;100393.81;4928953;29;20404;-59
2023/07/12 07:05:49;;;;;;;10.13;5.43;;;;;;;25.56;nan;100397.97;4930767;29;20060;-59
2023/07/12 07:08:18;;;;;;;11.55;5.43;;;;;;;25.54;nan;100405.44;4931509;29;20070;-59
2023/07/12 07:10:51;;;;;;;13.65;6.28;;;;;;;25.31;nan;100417.00;4930905;29;20066;-59
2023/07/12 07:13:18;;;;;;;13.95;5.53;;;;;;;25.28;nan;100425.47;4931962;29;20598;-59
2023/07/12 07:15:45;;;;;;;9.45;5.88;;;;;;;24.91;nan;100426.88;4921293;29;20531;-59
2023/07/12 07:18:12;;;;;;;15.27;6.38;;;;;;;25.00;nan;100433.97;4930263;29;20063;-59
2023/07/12 07:20:40;;;;;;;11.38;6.00;;;;;;;25.07;nan;100437.66;4926012;29;20052;-59
2023/07/12 07:23:07;;;;;;;14.40;6.85;;;;;;;25.01;nan;100451.88;4930526;29;20166;-59
2023/07/12 07:25:34;;;;;;;16.05;6.80;;;;;;;25.02;nan;100442.72;4929347;29;20058;-59
2023/07/12 07:28:01;;;;;;;10.10;6.10;;;;;;;25.52;nan;100453.44;4929253;29;20484;-59
2023/07/12 07:30:27;;;;;;;17.00;7.00;;;;;;;25.73;nan;100459.13;4931630;29;20059;-59
2023/07/12 07:32:54;;;;;;;13.80;7.22;;;;;;;25.22;nan;100472.09;4926901;29;20048;-59
2023/07/12 07:35:21;;;;;;;14.70;5.78;;;;;;;25.13;nan;100468.56;4929493;29;20052;-59
2023/07/12 07:37:48;;;;;;;11.05;5.88;;;;;;;25.10;nan;100472.47;4927226;29;20051;-59
2023/07/12 07:40:15;;;;;;;12.73;7.05;;;;;;;24.73;nan;100465.75;4932917;29;20417;-59
2023/07/12 07:42:42;;;;;;;10.55;6.45;;;;;;;25.07;nan;100464.69;4930013;29;20051;-59
2023/07/12 07:45:09;;;;;;;19.50;6.30;;;;;;;25.31;nan;100454.03;4930292;29;20661;-59
2023/07/12 07:47:36;;;;;;;9.90;6.50;;;;;;;24.91;nan;100448.50;4929556;29;20059;-59
2023/07/12 07:50:06;;;;;;;11.88;5.93;;;;;;;24.81;nan;100447.84;4930974;29;20060;-59
2023/07/12 07:52:32;;;;;;;21.40;6.65;;;;;;;24.51;nan;100452.88;4930512;29;20059;-59
2023/07/12 07:54:59;;;;;;;11.27;5.45;;;;;;;24.57;nan;100438.75;4930722;29;20503;-59
2023/07/12 07:57:26;;;;;;;9.93;5.53;;;;;;;24.70;nan;100468.78;4930312;29;20129;-59
2023/07/12 07:59:52;;;;;;;13.98;6.57;;;;;;;24.92;nan;100455.59;4930587;29;20052;-59
2023/07/12 08:02:19;;;;;;;10.80;5.03;;;;;;;25.13;nan;100451.53;4931506;29;20051;-59
2023/07/12 08:04:46;;;;;;;8.07;4.15;;;;;;;24.48;nan;100464.03;4927511;29;20051;-59
2023/07/12 08:07:13;;;;;;;9.63;4.00;;;;;;;23.93;nan;100460.91;4931229;29;20071;-59
2023/07/12 08:09:40;;;;;;;8.20;4.03;;;;;;;23.88;nan;100474.00;4921468;29;20055;-59
2023/07/12 08:12:07;;;;;;;6.82;4.38;;;;;;;24.34;nan;100487.13;4931516;29;20051;-59
2023/07/12 08:14:34;;;;;;;9.35;4.32;;;;;;;24.21;nan;100489.47;4922779;29;20469;-59
2023/07/12 08:17:00;;;;;;;9.40;4.05;;;;;;;24.41;nan;100495.44;4930678;29;20059;-59
2023/07/12 08:19:27;;;;;;;9.65;5.05;;;;;;;24.65;nan;100491.91;4929178;29;20055;-59
2023/07/12 08:21:53;;;;;;;9.88;3.83;;;;;;;24.49;nan;100488.16;4929762;29;20606;-59
2023/07/12 08:24:20;;;;;;;4.28;3.10;;;;;;;24.54;nan;100484.97;4929835;29;20051;-59
2023/07/12 08:26:47;;;;;;;6.35;3.80;;;;;;;24.98;nan;100481.94;4941973;28;20059;-59
2023/07/12 08:29:24;;;;;;;12.18;4.32;;;;;;;24.73;nan;100479.28;4929693;29;20456;-59
2023/07/12 08:31:50;;;;;;;11.10;3.78;;;;;;;24.34;nan;100479.88;4929525;29;20062;-59
2023/07/12 08:34:18;;;;;;;6.13;3.25;;;;;;;24.65;nan;100476.56;4929811;29;20052;-59
2023/07/12 08:36:45;;;;;;;6.68;3.33;;;;;;;23.82;nan;100497.13;4927040;29;20441;-59
2023/07/12 08:39:11;;;;;;;5.53;3.70;;;;;;;24.27;nan;100500.44;4930354;29;20051;-59
2023/07/12 08:41:39;;;;;;;9.32;3.88;;;;;;;23.99;nan;100503.41;4946663;28;20059;-59
2023/07/12 08:44:12;;;;;;;4.78;3.00;;;;;;;24.11;nan;100511.19;4950252;29;20627;-59
2023/07/12 08:47:00;;;;;;;6.53;2.63;;;;;;;24.10;nan;100512.22;4930787;29;20051;-59
2023/07/12 08:49:28;;;;;;;24.13;4.68;;;;;;;24.38;nan;100500.13;4927879;29;20059;-59
2023/07/12 08:52:15;;;;;;;4.40;3.00;;;;;;;23.85;nan;100501.34;4930410;29;20048;-59
2023/07/12 08:54:42;;;;;;;5.68;2.92;;;;;;;24.09;nan;100486.22;4922851;29;20492;-59
2023/07/12 08:57:15;;;;;;;4.47;2.92;;;;;;;24.41;nan;100508.94;4930949;29;20066;-60
2023/07/12 08:59:44;;;;;;;4.50;2.40;;;;;;;24.51;nan;100488.84;4925383;29;20056;-60
2023/07/12 09:02:19;;;;;;;6.30;2.58;;;;;;;24.58;nan;100491.75;4930825;29;20052;-60
2023/07/12 09:04:46;;;;;;;4.82;1.67;;;;;;;24.08;nan;100514.22;4931755;29;20051;-58
2023/07/12 09:07:21;;;;;;;3.97;2.10;;;;;;;23.99;nan;100519.59;4931534;29;20052;-58
2023/07/12 09:09:48;;;;;;;4.32;2.35;;;;;;;24.27;nan;100522.03;4934102;29;20063;-59
2023/07/12 09:12:24;;;;;;;4.57;2.13;;;;;;;24.00;nan;100526.69;4931320;29;20051;-59
2023/07/12 09:14:59;;;;;;;4.38;2.00;;;;;;;24.15;nan;100523.38;4930471;29;20066;-59
2023/07/12 09:17:30;;;;;;;5.80;2.13;;;;;;;24.23;nan;100531.50;4918762;29;20531;-59
2023/07/12 09:19:57;;;;;;;3.95;2.50;;;;;;;24.54;nan;100525.50;4921051;29;20085;-59
2023/07/12 09:22:24;;;;;;;4.85;2.17;;;;;;;25.00;nan;100517.75;4929104;29;20123;-58
2023/07/12 09:24:55;;;;;;;3.97;1.65;;;;;;;24.70;nan;100514.72;4929684;29;20066;-59
2023/07/12 09:27:27;;;;;;;5.95;1.90;;;;;;;24.60;nan;100522.13;4940561;28;20365;-59
2023/07/12 09:30:03;;;;;;;4.18;1.55;;;;;;;24.89;nan;100520.81;4928240;29;20423;-59
2023/07/12 09:32:32;;;;;;;3.13;1.88;;;;;;;24.90;nan;100517.09;4931122;29;20059;-58
2023/07/12 09:35:01;;;;;;;4.17;2.07;;;;;;;24.70;nan;100521.97;4929882;29;20204;-59
2023/07/12 09:37:35;;;;;;;4.65;3.10;;;;;;;24.86;nan;100526.53;4929413;29;20303;-59
2023/07/12 09:40:03;;;;;;;4.80;2.30;;;;;;;24.78;nan;100529.25;4930459;29;20067;-59
2023/07/12 09:42:30;;;;;;;4.30;2.10;;;;;;;25.06;nan;100527.91;4933032;29;20629;-58
2023/07/12 09:44:58;;;;;;;8.18;2.70;;;;;;;24.80;nan;100532.63;4933965;29;20067;-59
2023/07/12 09:47:42;;;;;;;4.75;2.97;;;;;;;24.88;nan;100540.72;4934308;29;20527;-59
2023/07/12 09:50:13;;;;;;;4.82;2.40;;;;;;;25.05;nan;100542.44;4937288;29;20382;-59
2023/07/12 09:52:56;;;;;;;5.43;2.10;;;;;;;25.64;nan;100558.41;4935367;29;20066;-59
2023/07/12 09:55:24;;;;;;;5.88;1.83;;;;;;;24.47;nan;100546.94;4935729;29;20047;-59
2023/07/12 09:58:04;;;;;;;7.13;3.00;;;;;;;24.65;nan;100552.22;4925227;29;20055;-59
2023/07/12 10:00:39;;;;;;;4.10;1.88;;;;;;;25.21;nan;100556.97;4935813;29;20114;-60
2023/07/12 10:03:23;;;;;;;5.22;1.52;;;;;;;25.28;nan;100560.69;4934827;29;20424;-59
2023/07/12 10:06:03;;;;;;;4.47;2.03;;;;;;;25.05;nan;100547.00;4935347;29;20105;-61
2023/07/12 10:08:46;;;;;;;3.80;1.80;;;;;;;25.64;nan;100563.00;4933900;29;20079;-58
2023/07/12 10:11:37;;;;;;;5.13;1.90;;;;;;;25.38;nan;100574.03;4929580;29;20059;-58
2023/07/12 10:14:09;;;;;;;5.68;1.92;;;;;;;25.26;nan;100570.81;4923073;29;20055;-59
2023/07/12 10:16:44;;;;;;;3.42;2.05;;;;;;;25.76;nan;100567.03;4932507;29;20067;-58
2023/07/12 10:19:22;;;;;;;3.15;2.03;;;;;;;25.55;nan;100548.66;4932869;29;20056;-58
2023/07/12 10:21:50;;;;;;;4.25;1.50;;;;;;;26.21;nan;100563.84;4932549;29;20059;-58
2023/07/12 10:24:19;;;;;;;2.38;1.35;;;;;;;25.73;nan;100572.78;4933226;29;20570;-58
2023/07/12 10:26:47;;;;;;;6.88;1.80;;;;;;;26.22;nan;100563.66;4928575;29;20589;-58
2023/07/12 10:29:22;;;;;;;10.05;1.58;;;;;;;26.35;nan;100571.19;4918776;29;20059;-58
2023/07/12 10:32:00;;;;;;;5.75;1.75;;;;;;;26.36;nan;100564.75;4924941;29;20054;-58
2023/07/12 10:34:44;;;;;;;4.50;2.55;;;;;;;26.65;nan;100572.25;4947300;29;20070;-60
2023/07/12 10:37:33;;;;;;;4.05;1.45;;;;;;;26.06;nan;100567.28;4932070;29;20565;-58
2023/07/12 10:40:00;;;;;;;4.95;1.88;;;;;;;25.96;nan;100572.91;4929255;29;20066;-58
2023/07/12 10:42:34;;;;;;;2.72;1.63;;;;;;;26.18;nan;100571.28;4930901;29;20075;-59
2023/07/12 10:45:04;;;;;;;3.60;1.30;;;;;;;26.33;nan;100573.25;4931702;29;20051;-59
2023/07/12 10:47:36;;;;;;;2.92;1.65;;;;;;;26.07;nan;100582.50;4932809;29;20051;-59
2023/07/12 10:50:07;;;;;;;4.75;1.40;;;;;;;26.36;nan;100572.91;4932966;29;20304;-59
2023/07/12 10:52:55;;;;;;;3.28;1.40;;;;;;;27.05;nan;100577.53;4926667;29;20067;-59
2023/07/12 10:55:42;;;;;;;3.72;1.63;;;;;;;27.08;nan;100582.59;4928765;29;20566;-59
2023/07/12 10:58:21;;;;;;;5.43;1.83;;;;;;;27.57;nan;100586.75;4929041;29;20051;-60
2023/07/12 11:00:53;;;;;;;2.40;1.02;;;;;;;28.35;nan;100585.34;4932156;29;20059;-60
2023/07/12 11:03:44;;;;;;;2.72;0.85;;;;;;;28.87;nan;100588.00;4935317;29;20066;-60
2023/07/12 11:06:25;;;;;;;5.70;1.17;;;;;;;28.51;nan;100577.97;4933733;29;20088;-59
2023/07/12 11:09:06;;;;;;;4.22;1.33;;;;;;;28.88;nan;100581.53;4933424;29;20052;-59
2023/07/12 11:11:44;;;;;;;2.60;1.67;;;;;;;28.66;nan;100592.41;4931484;29;20872;-59
2023/07/12 11:14:21;;;;;;;3.22;1.30;;;;;;;28.99;nan;100591.88;4931851;29;20074;-59
2023/07/12 11:17:03;;;;;;;5.30;1.50;;;;;;;28.68;nan;100600.38;4932031;29;20051;-58
2023/07/12 11:19:39;;;;;;;2.88;1.17;;;;;;;26.48;nan;100590.44;4932135;29;20060;-59
2023/07/12 11:22:24;;;;;;;1.65;0.80;;;;;;;25.95;nan;100598.25;4932355;29;20067;-58
2023/07/12 11:24:56;;;;;;;5.28;1.15;;;;;;;26.69;nan;100600.66;4931877;29;20051;-58
2023/07/12 11:27:44;;;;;;;7.43;2.60;;;;;;;28.74;nan;100589.56;4934934;29;20059;-58
2023/07/12 11:30:14;;;;;;;3.58;1.33;;;;;;;28.07;nan;100597.91;4931967;29;20060;-58
2023/07/12 11:32:44;;;;;;;3.55;1.30;;;;;;;26.75;nan;100596.41;4931517;29;20480;-61
2023/07/12 11:35:30;;;;;;;5.97;1.58;;;;;;;26.43;nan;100579.28;4931487;29;20060;-59
2023/07/12 11:37:56;;;;;;;3.20;1.65;;;;;;;26.29;nan;100590.88;4930701;29;20111;-58
2023/07/12 11:40:29;;;;;;;5.03;1.52;;;;;;;26.13;nan;100591.81;4932426;29;20062;-60
2023/07/12 11:43:15;;;;;;;4.45;1.30;;;;;;;28.00;nan;100576.97;4925942;29;20060;-60
2023/07/12 11:45:41;;;;;;;2.20;1.10;;;;;;;29.37;nan;100588.06;4933148;29;20566;-58
2023/07/12 11:48:08;;;;;;;4.18;1.13;;;;;;;28.45;nan;100595.06;4954814;28;20055;-58